createdAt,value
2022-09-17T00:01:08.449Z,15.80
2022-09-17T00:03:35.930Z,15.80
2022-09-17T00:06:05.330Z,15.70
2022-09-17T00:08:32.681Z,15.70
2022-09-17T00:11:10.494Z,15.70
2022-09-17T00:13:37.319Z,15.70
2022-09-17T00:16:04.208Z,15.70
2022-09-17T00:18:30.859Z,15.40
2022-09-17T00:20:57.487Z,15.70
2022-09-17T00:23:24.173Z,15.60
2022-09-17T00:25:50.819Z,15.60
2022-09-17T00:28:17.444Z,15.60
2022-09-17T00:30:45.268Z,15.60
2022-09-17T00:33:16.702Z,15.60
2022-09-17T00:35:44.368Z,15.60
2022-09-17T00:38:11.450Z,15.60
2022-09-17T00:40:38.465Z,15.60
2022-09-17T00:43:06.877Z,15.50
2022-09-17T00:45:33.488Z,15.50
2022-09-17T00:48:02.887Z,15.50
2022-09-17T00:50:37.075Z,15.50
2022-09-17T00:53:19.549Z,15.50
2022-09-17T00:56:05.107Z,15.50
2022-09-17T00:58:32.833Z,15.40
2022-09-17T01:01:00.100Z,15.40
2022-09-17T01:03:27.044Z,15.40
2022-09-17T01:06:11.516Z,15.40
2022-09-17T01:08:54.676Z,15.40
2022-09-17T01:11:50.771Z,15.40
2022-09-17T01:14:31.612Z,15.40
2022-09-17T01:17:36.843Z,15.40
2022-09-17T01:20:38.404Z,15.30
2022-09-17T01:23:45.063Z,15.30
2022-09-17T01:26:48.920Z,15.30
2022-09-17T01:29:34.446Z,15.30
2022-09-17T01:32:03.779Z,15.30
2022-09-17T01:34:45.139Z,15.20
2022-09-17T01:37:19.553Z,15.20
2022-09-17T01:40:04.439Z,15.20
2022-09-17T01:42:49.062Z,15.30
2022-09-17T01:45:37.493Z,15.20
2022-09-17T01:48:19.703Z,15.20
2022-09-17T01:50:51.999Z,15.20
2022-09-17T01:53:21.544Z,15.10
2022-09-17T01:55:49.190Z,15.10
2022-09-17T01:58:27.536Z,15.10
2022-09-17T02:01:02.009Z,15.10
2022-09-17T02:03:37.880Z,15.10
2022-09-17T02:06:12.077Z,15.00
2022-09-17T02:08:50.344Z,15.10
2022-09-17T02:11:17.272Z,15.00
2022-09-17T02:13:58.787Z,15.00
2022-09-17T02:16:28.662Z,15.00
2022-09-17T02:19:06.786Z,15.00
2022-09-17T02:21:47.730Z,15.00
2022-09-17T02:24:27.653Z,15.00
2022-09-17T02:27:02.941Z,15.00
2022-09-17T02:29:39.029Z,14.90
2022-09-17T02:32:06.018Z,14.90
2022-09-17T02:34:32.913Z,14.90
2022-09-17T02:36:59.682Z,14.90
2022-09-17T02:39:27.181Z,14.90
2022-09-17T02:42:27.058Z,14.90
2022-09-17T02:45:05.357Z,14.90
2022-09-17T02:48:01.271Z,14.80
2022-09-17T02:50:51.697Z,14.80
2022-09-17T02:54:16.767Z,14.80
2022-09-17T02:56:57.876Z,14.80
2022-09-17T02:59:31.598Z,14.80
2022-09-17T03:02:12.696Z,14.80
2022-09-17T03:04:40.006Z,14.80
2022-09-17T03:07:09.060Z,14.70
2022-09-17T03:09:36.381Z,14.70
2022-09-17T03:12:03.672Z,14.70
2022-09-17T03:14:30.280Z,14.70
2022-09-17T03:16:57.409Z,14.70
2022-09-17T03:19:24.173Z,14.70
2022-09-17T03:21:50.827Z,14.70
2022-09-17T03:24:17.499Z,14.70
2022-09-17T03:26:44.129Z,14.70
2022-09-17T03:29:10.782Z,14.70
2022-09-17T03:31:37.487Z,14.60
2022-09-17T03:34:04.158Z,14.60
2022-09-17T03:36:30.911Z,14.70
2022-09-17T03:38:58.080Z,14.60
2022-09-17T03:41:25.269Z,14.60
2022-09-17T03:43:52.198Z,14.70
2022-09-17T03:46:20.425Z,14.60
2022-09-17T03:48:47.127Z,14.60
2022-09-17T03:51:13.924Z,14.60
2022-09-17T03:53:40.551Z,14.50
2022-09-17T03:56:07.616Z,14.50
2022-09-17T03:58:34.591Z,14.50
2022-09-17T04:01:03.326Z,14.50
2022-09-17T04:03:30.218Z,14.50
2022-09-17T04:05:56.918Z,14.50
2022-09-17T04:08:23.615Z,14.50
2022-09-17T04:10:51.959Z,14.40
2022-09-17T04:13:19.325Z,14.40
2022-09-17T04:15:47.103Z,14.40
2022-09-17T04:18:14.055Z,14.40
2022-09-17T04:20:40.853Z,14.40
2022-09-17T04:23:07.619Z,14.40
2022-09-17T04:25:34.321Z,14.40
2022-09-17T04:28:01.079Z,14.40
2022-09-17T04:30:27.709Z,14.30
2022-09-17T04:32:54.321Z,14.30
2022-09-17T04:35:20.995Z,14.30
2022-09-17T04:37:57.988Z,14.30
2022-09-17T04:40:26.256Z,14.30
2022-09-17T04:42:54.105Z,14.20
2022-09-17T04:45:21.056Z,14.20
2022-09-17T04:47:47.898Z,14.30
2022-09-17T04:50:14.623Z,14.30
2022-09-17T04:52:45.189Z,14.20
2022-09-17T04:55:12.728Z,14.20
2022-09-17T04:57:39.642Z,14.20
2022-09-17T05:00:10.853Z,14.20
2022-09-17T05:02:37.580Z,14.20
2022-09-17T05:05:04.480Z,14.20
2022-09-17T05:07:31.101Z,14.20
2022-09-17T05:09:57.767Z,14.10
2022-09-17T05:12:24.403Z,14.10
2022-09-17T05:14:51.113Z,14.20
2022-09-17T05:17:17.719Z,14.10
2022-09-17T05:19:44.353Z,14.10
2022-09-17T05:22:11.003Z,14.10
2022-09-17T05:24:39.364Z,14.10
2022-09-17T05:27:09.272Z,14.10
2022-09-17T05:29:36.686Z,14.10
2022-09-17T05:32:04.860Z,14.00
2022-09-17T05:34:31.508Z,14.00
2022-09-17T05:36:58.144Z,14.00
2022-09-17T05:39:27.556Z,14.00
2022-09-17T05:41:55.089Z,14.00
2022-09-17T05:44:22.054Z,14.00
2022-09-17T05:46:48.767Z,14.00
2022-09-17T05:49:15.646Z,13.90
2022-09-17T05:51:42.869Z,14.00
2022-09-17T05:54:09.563Z,14.00
2022-09-17T05:56:36.234Z,13.90
2022-09-17T05:59:03.064Z,13.90
2022-09-17T06:01:29.963Z,13.90
2022-09-17T06:03:56.751Z,13.90
2022-09-17T06:06:23.489Z,14.10
2022-09-17T06:08:50.164Z,13.90
2022-09-17T06:11:16.840Z,13.90
2022-09-17T06:13:43.819Z,13.90
2022-09-17T06:16:10.455Z,13.90
2022-09-17T06:18:37.174Z,13.90
2022-09-17T06:21:05.626Z,13.90
2022-09-17T06:23:37.310Z,13.90
2022-09-17T06:26:05.453Z,13.90
2022-09-17T06:28:32.622Z,14.00
2022-09-17T06:31:03.957Z,13.90
2022-09-17T06:33:31.343Z,14.00
2022-09-17T06:36:00.622Z,13.90
2022-09-17T06:38:31.274Z,14.00
2022-09-17T06:40:58.209Z,13.90
2022-09-17T06:43:25.607Z,14.00
2022-09-17T06:45:56.533Z,14.00
2022-09-17T06:48:23.498Z,13.90
2022-09-17T06:50:51.456Z,14.00
2022-09-17T06:53:19.964Z,14.00
2022-09-17T06:55:46.672Z,14.00
2022-09-17T06:58:13.327Z,14.00
2022-09-17T07:00:40.157Z,14.00
2022-09-17T07:03:06.958Z,14.00
2022-09-17T07:05:33.603Z,14.10
2022-09-17T07:08:03.453Z,14.10
2022-09-17T07:10:31.034Z,14.00
2022-09-17T07:12:59.138Z,14.10
2022-09-17T07:15:25.931Z,14.10
2022-09-17T07:17:52.884Z,14.10
2022-09-17T07:20:19.954Z,14.10
2022-09-17T07:22:46.766Z,14.10
2022-09-17T07:25:13.481Z,13.90
2022-09-17T07:27:40.102Z,14.10
2022-09-17T07:30:07.397Z,14.10
2022-09-17T07:32:34.085Z,14.10
2022-09-17T07:35:00.730Z,14.10
2022-09-17T07:37:27.613Z,14.10
2022-09-17T07:39:54.365Z,14.10
2022-09-17T07:42:21.018Z,14.10
2022-09-17T07:44:47.745Z,14.10
2022-09-17T07:47:14.393Z,14.10
2022-09-17T07:49:41.234Z,14.10
2022-09-17T07:52:07.902Z,14.10
2022-09-17T07:54:36.827Z,14.10
2022-09-17T07:57:04.140Z,14.10
2022-09-17T07:59:30.880Z,14.10
2022-09-17T08:01:57.672Z,14.10
2022-09-17T08:04:24.545Z,14.10
2022-09-17T08:06:51.172Z,14.10
2022-09-17T08:09:18.659Z,14.10
2022-09-17T08:11:55.660Z,14.10
2022-09-17T08:14:28.511Z,14.10
2022-09-17T08:16:56.298Z,14.10
2022-09-17T08:19:22.928Z,14.10
2022-09-17T08:21:49.526Z,14.10
2022-09-17T08:24:16.184Z,14.10
2022-09-17T08:26:42.806Z,14.10
2022-09-17T08:29:11.198Z,14.10
2022-09-17T08:31:38.007Z,14.10
2022-09-17T08:34:09.229Z,14.10
2022-09-17T08:36:35.900Z,14.20
2022-09-17T08:39:02.889Z,14.20
2022-09-17T08:41:36.080Z,14.20
2022-09-17T08:44:07.124Z,14.20
2022-09-17T08:46:46.370Z,14.20
2022-09-17T08:49:41.921Z,14.20
2022-09-17T08:52:32.370Z,14.30
2022-09-17T08:55:07.847Z,14.30
2022-09-17T08:57:48.804Z,14.30
2022-09-17T09:00:23.287Z,14.30
2022-09-17T09:03:22.119Z,14.30
2022-09-17T09:05:52.445Z,14.30
2022-09-17T09:08:22.603Z,14.30
2022-09-17T09:10:55.733Z,14.30
2022-09-17T09:13:25.049Z,14.40
2022-09-17T09:16:05.965Z,14.40
2022-09-17T09:18:36.883Z,14.40
2022-09-17T09:21:22.139Z,14.40
2022-09-17T09:24:22.294Z,14.40
2022-09-17T09:27:25.026Z,14.50
2022-09-17T09:35:09.176Z,14.60
2022-09-17T09:37:39.510Z,14.60
2022-09-17T09:40:41.395Z,14.60
2022-09-17T09:44:02.599Z,14.60
2022-09-17T09:46:53.634Z,14.60
2022-09-17T09:49:38.329Z,14.60
2022-09-17T09:52:14.140Z,14.60
2022-09-17T09:55:22.271Z,14.60
2022-09-17T09:57:55.819Z,14.70
2022-09-17T10:00:31.544Z,16.60
2022-09-17T10:03:42.570Z,14.70
2022-09-17T10:06:10.365Z,14.70
2022-09-17T10:08:42.042Z,14.70
2022-09-17T10:11:11.415Z,14.70
2022-09-17T10:13:38.249Z,14.80
2022-09-17T10:16:21.546Z,14.80
2022-09-17T10:18:49.572Z,14.90
2022-09-17T10:21:36.830Z,14.80
2022-09-17T10:24:05.156Z,14.80
2022-09-17T10:26:34.825Z,14.80
2022-09-17T10:29:21.755Z,14.80
2022-09-17T10:31:56.173Z,14.90
2022-09-17T10:34:28.937Z,14.90
2022-09-17T10:36:56.680Z,14.90
2022-09-17T10:39:31.800Z,15.00
2022-09-17T10:42:00.693Z,15.00
2022-09-17T10:44:35.589Z,15.10
2022-09-17T10:47:14.485Z,15.10
2022-09-17T10:49:57.818Z,15.10
2022-09-17T10:52:34.356Z,15.20
2022-09-17T10:55:19.194Z,15.20
2022-09-17T10:58:05.835Z,15.30
2022-09-17T11:00:50.820Z,15.30
2022-09-17T11:03:38.918Z,15.40
2022-09-17T11:06:14.161Z,15.40
2022-09-17T11:09:28.601Z,15.40
2022-09-17T11:12:18.280Z,15.50
2022-09-17T11:14:59.562Z,15.60
2022-09-17T11:17:50.070Z,15.60
2022-09-17T11:20:41.969Z,15.70
2022-09-17T11:23:20.679Z,15.70
2022-09-17T11:26:08.398Z,15.80
2022-09-17T11:28:37.985Z,15.90
2022-09-17T11:31:29.065Z,15.90
2022-09-17T11:34:09.268Z,16.00
2022-09-17T11:36:46.845Z,16.10
2022-09-17T11:39:25.368Z,16.10
2022-09-17T11:41:52.739Z,16.30
2022-09-17T11:44:36.509Z,16.30
2022-09-17T11:47:14.776Z,16.30
2022-09-17T11:50:01.719Z,16.40
2022-09-17T11:52:38.686Z,16.40
2022-09-17T11:55:16.924Z,16.50
2022-09-17T11:57:44.686Z,16.60
2022-09-17T12:00:18.017Z,16.60
2022-09-17T12:03:14.164Z,16.70
2022-09-17T12:05:45.688Z,16.80
2022-09-17T12:08:29.654Z,16.80
2022-09-17T12:11:15.229Z,16.90
2022-09-17T12:13:49.375Z,16.90
2022-09-17T12:16:28.345Z,17.00
2022-09-17T12:19:27.157Z,17.00
2022-09-17T12:22:10.753Z,17.10
2022-09-17T12:24:38.793Z,17.10
2022-09-17T12:27:17.368Z,17.10
2022-09-17T12:30:05.038Z,17.20
2022-09-17T12:32:50.655Z,17.20
2022-09-17T12:35:59.704Z,17.20
2022-09-17T12:38:32.991Z,17.20
2022-09-17T12:41:19.689Z,17.30
2022-09-17T12:44:07.684Z,17.30
2022-09-17T12:46:41.877Z,17.30
2022-09-17T12:49:20.897Z,17.30
2022-09-17T12:51:53.045Z,17.30
2022-09-17T12:54:45.453Z,17.30
2022-09-17T12:57:34.740Z,17.30
2022-09-17T13:00:08.625Z,17.40
2022-09-17T13:02:50.585Z,17.30
2022-09-17T13:05:55.716Z,17.40
2022-09-17T13:08:45.326Z,17.40
2022-09-17T13:11:26.620Z,17.40
2022-09-17T13:14:04.857Z,17.30
2022-09-17T13:16:45.522Z,17.40
2022-09-17T13:19:44.187Z,17.30
2022-09-17T13:22:18.306Z,17.30
2022-09-17T13:24:47.510Z,17.40
2022-09-17T13:27:23.129Z,17.50
2022-09-17T13:29:55.834Z,17.50
2022-09-17T13:32:38.781Z,17.50
2022-09-17T13:35:17.057Z,17.40
2022-09-17T13:37:44.357Z,17.70
2022-09-17T13:40:25.994Z,17.40
2022-09-17T13:42:57.079Z,17.40
2022-09-17T13:45:25.662Z,17.50
2022-09-17T13:47:56.146Z,17.50
2022-09-17T13:50:27.711Z,17.50
2022-09-17T13:52:56.090Z,17.50
2022-09-17T13:55:35.670Z,17.50
2022-09-17T13:58:12.347Z,17.60
2022-09-17T14:00:51.801Z,17.60
2022-09-17T14:03:30.931Z,17.60
2022-09-17T14:05:58.971Z,17.60
2022-09-17T14:08:31.202Z,17.40
2022-09-17T14:11:00.085Z,17.60
2022-09-17T14:13:42.438Z,17.70
2022-09-17T14:16:42.751Z,17.70
2022-09-17T14:19:27.710Z,17.70
2022-09-17T14:22:00.986Z,17.80
2022-09-17T14:24:38.094Z,17.90
2022-09-17T14:27:15.423Z,17.80
2022-09-17T14:29:43.609Z,17.90
2022-09-17T14:32:33.482Z,17.90
2022-09-17T14:35:15.574Z,18.00
2022-09-17T14:37:49.288Z,18.10
2022-09-17T14:40:18.959Z,18.20
2022-09-17T14:42:46.171Z,18.30
2022-09-17T14:45:37.065Z,18.60
2022-09-17T14:48:29.492Z,18.60
2022-09-17T14:51:18.401Z,18.60
2022-09-17T14:53:49.513Z,18.60
2022-09-17T14:56:25.044Z,18.60
2022-09-17T14:58:53.631Z,18.60
2022-09-17T15:01:28.372Z,18.70
2022-09-17T15:04:14.240Z,18.70
2022-09-17T15:06:41.984Z,18.80
2022-09-17T15:09:26.023Z,18.80
2022-09-17T15:11:54.235Z,18.90
2022-09-17T15:14:30.935Z,18.90
2022-09-17T15:17:02.002Z,18.90
2022-09-17T15:19:35.925Z,18.90
2022-09-17T15:22:18.213Z,18.90
2022-09-17T15:25:08.110Z,18.90
2022-09-17T15:27:42.858Z,18.90
2022-09-17T15:30:20.837Z,18.90
2022-09-17T15:32:55.907Z,18.90
2022-09-17T15:35:33.621Z,18.80
2022-09-17T15:38:23.240Z,18.80
2022-09-17T15:40:50.857Z,18.80
2022-09-17T15:43:19.195Z,18.80
2022-09-17T15:45:46.649Z,18.70
2022-09-17T15:48:28.448Z,18.70
2022-09-17T15:50:57.238Z,18.70
2022-09-17T15:53:25.049Z,18.70
2022-09-17T15:56:13.234Z,18.70
2022-09-17T15:58:43.020Z,18.80
2022-09-17T16:01:16.010Z,18.90
2022-09-17T16:03:45.861Z,18.80
2022-09-17T16:06:18.508Z,18.70
2022-09-17T16:08:50.408Z,18.80
2022-09-17T16:11:25.881Z,18.70
2022-09-17T16:14:00.830Z,18.60
2022-09-17T16:16:39.223Z,18.60
2022-09-17T16:19:12.792Z,18.60
2022-09-17T16:21:47.100Z,18.60
2022-09-17T16:24:14.520Z,18.60
2022-09-17T16:26:42.243Z,18.50
2022-09-17T16:29:15.501Z,18.50
2022-09-17T16:31:42.612Z,18.50
2022-09-17T16:34:09.490Z,18.40
2022-09-17T16:36:36.464Z,18.40
2022-09-17T16:39:06.516Z,18.40
2022-09-17T16:41:34.015Z,18.40
2022-09-17T16:44:00.875Z,18.30
2022-09-17T16:46:27.751Z,18.30
2022-09-17T16:49:04.324Z,19.20
2022-09-17T16:51:46.442Z,18.30
2022-09-17T16:54:32.315Z,18.30
2022-09-17T16:57:01.796Z,18.20
2022-09-17T16:59:45.564Z,18.20
2022-09-17T17:02:14.913Z,18.20
2022-09-17T17:07:42.960Z,18.10
2022-09-17T17:10:12.937Z,18.10
2022-09-17T17:12:40.829Z,18.00
2022-09-17T17:15:10.943Z,18.00
2022-09-17T17:17:38.718Z,18.00
2022-09-17T17:20:10.863Z,17.90
2022-09-17T17:22:40.180Z,17.90
2022-09-17T17:25:16.754Z,18.00
2022-09-17T17:31:21.429Z,17.80
2022-09-17T17:47:50.089Z,17.50
2022-09-17T17:50:18.750Z,17.50
2022-09-17T17:53:16.469Z,17.40
2022-09-17T17:56:13.682Z,17.40
2022-09-17T17:59:36.064Z,17.30
2022-09-17T18:02:50.673Z,17.30
2022-09-17T18:05:27.841Z,17.20
2022-09-17T18:08:33.690Z,17.20
2022-09-17T18:11:10.257Z,17.10
2022-09-17T18:13:40.862Z,17.10
2022-09-17T18:16:25.860Z,17.00
2022-09-17T18:18:56.622Z,17.00
2022-09-17T18:21:25.978Z,16.90
2022-09-17T18:23:53.441Z,16.90
2022-09-17T18:26:22.833Z,16.80
2022-09-17T18:29:01.437Z,16.80
2022-09-17T18:31:32.777Z,16.80
2022-09-17T18:34:14.529Z,16.70
2022-09-17T18:36:50.315Z,16.90
2022-09-17T18:42:23.595Z,16.60
2022-09-17T18:44:50.991Z,16.80
2022-09-17T18:47:32.971Z,16.70
2022-09-17T18:50:00.664Z,18.60
2022-09-17T18:52:33.310Z,16.50
2022-09-17T18:55:07.600Z,16.40
2022-09-17T18:57:47.058Z,16.50
2022-09-17T19:00:27.991Z,16.40
2022-09-17T19:03:25.226Z,17.80
2022-09-17T19:05:57.261Z,16.40
2022-09-17T19:08:25.019Z,16.30
2022-09-17T19:14:44.133Z,16.30
2022-09-17T19:17:17.817Z,16.20
2022-09-17T19:19:51.220Z,16.20
2022-09-17T19:22:19.005Z,16.20
2022-09-17T19:24:45.817Z,16.10
2022-09-17T19:27:15.243Z,16.10
2022-09-17T19:29:42.506Z,16.10
2022-09-17T19:32:16.028Z,16.00
2022-09-17T19:34:43.746Z,16.00
2022-09-17T19:37:10.695Z,16.00
2022-09-17T19:39:37.691Z,15.90
2022-09-17T19:42:04.926Z,15.90
2022-09-17T19:44:31.853Z,15.90
2022-09-17T19:46:58.951Z,15.80
2022-09-17T19:49:25.922Z,15.80
2022-09-17T19:51:52.887Z,15.80
2022-09-17T19:54:19.734Z,15.80
2022-09-17T19:56:47.425Z,17.00
2022-09-17T19:59:14.819Z,15.70
2022-09-17T20:01:44.896Z,15.70
2022-09-17T20:04:14.028Z,15.70
2022-09-17T20:06:40.730Z,15.70
2022-09-17T20:09:07.605Z,15.60
2022-09-17T20:11:34.556Z,15.60
2022-09-17T20:14:09.123Z,15.60
2022-09-17T20:16:37.148Z,16.30
2022-09-17T20:19:09.961Z,15.50
2022-09-17T20:21:37.113Z,15.40
2022-09-17T20:24:06.339Z,15.50
2022-09-17T20:26:33.695Z,15.40
2022-09-17T20:29:01.213Z,15.30
2022-09-17T20:31:29.726Z,15.30
2022-09-17T20:33:58.917Z,17.10
2022-09-17T20:37:12.132Z,15.30
2022-09-17T20:39:40.507Z,15.20
2022-09-17T20:42:07.867Z,15.40
2022-09-17T20:44:34.723Z,15.20
2022-09-17T20:47:02.159Z,15.20
2022-09-17T20:49:30.458Z,15.20
2022-09-17T20:51:57.941Z,15.10
2022-09-17T20:54:25.601Z,15.10
2022-09-17T20:56:52.408Z,15.10
2022-09-17T20:59:19.705Z,15.20
2022-09-17T21:01:49.662Z,15.00
2022-09-17T21:04:21.192Z,15.00
2022-09-17T21:06:53.080Z,14.90
2022-09-17T21:09:20.373Z,15.00
2022-09-17T21:11:49.538Z,14.90
2022-09-17T21:14:21.273Z,14.90
2022-09-17T21:16:49.057Z,14.90
2022-09-17T21:19:20.265Z,14.90
2022-09-17T21:21:48.455Z,14.90
2022-09-17T21:24:18.687Z,14.90
2022-09-17T21:26:45.921Z,14.80
2022-09-17T21:29:13.152Z,14.80
2022-09-17T21:31:41.413Z,14.80
2022-09-17T21:34:12.162Z,15.20
2022-09-17T21:36:40.388Z,14.80
2022-09-17T21:39:11.925Z,14.80
2022-09-17T21:41:42.494Z,14.70
2022-09-17T21:44:11.450Z,14.70
2022-09-17T21:46:38.977Z,14.70
2022-09-17T21:49:08.467Z,14.70
2022-09-17T21:51:37.990Z,14.70
2022-09-17T21:54:19.855Z,14.60
2022-09-17T21:56:46.890Z,14.60
2022-09-17T21:59:15.515Z,14.60
2022-09-17T22:01:47.035Z,14.70
2022-09-17T22:04:19.357Z,14.60
2022-09-17T22:06:47.705Z,14.60
2022-09-17T22:09:20.369Z,14.60
2022-09-17T22:11:49.308Z,14.60
2022-09-17T22:14:20.311Z,14.60
2022-09-17T22:16:53.334Z,14.60
2022-09-17T22:19:33.066Z,14.50
2022-09-17T22:21:59.905Z,14.50
2022-09-17T22:24:26.791Z,14.50
2022-09-17T22:26:57.907Z,14.50
2022-09-17T22:29:26.953Z,14.50
2022-09-17T22:31:53.716Z,14.50
2022-09-17T22:34:22.564Z,14.50
2022-09-17T22:36:49.830Z,14.40
2022-09-17T22:39:19.099Z,14.40
2022-09-17T22:41:46.146Z,14.40
2022-09-17T22:44:18.304Z,14.40
2022-09-17T22:46:46.964Z,14.40
2022-09-17T22:49:14.393Z,14.40
2022-09-17T22:51:42.010Z,14.40
2022-09-17T22:54:12.147Z,14.40
2022-09-17T22:56:39.014Z,14.40
2022-09-17T22:59:05.796Z,14.30
2022-09-17T23:01:34.437Z,14.30
2022-09-17T23:04:01.898Z,14.30
2022-09-17T23:06:31.845Z,14.30
2022-09-17T23:08:59.001Z,14.30
2022-09-17T23:11:28.472Z,14.30
2022-09-17T23:14:02.288Z,14.30
2022-09-17T23:16:37.428Z,14.30
2022-09-17T23:19:04.841Z,14.30
2022-09-17T23:21:31.666Z,14.20
2022-09-17T23:23:58.722Z,14.30
2022-09-17T23:26:26.493Z,14.30
2022-09-17T23:28:53.652Z,14.30
2022-09-17T23:31:25.287Z,14.20
2022-09-17T23:33:52.799Z,14.30
2022-09-17T23:36:30.993Z,14.20
2022-09-17T23:38:58.945Z,14.20
2022-09-17T23:41:26.659Z,14.20
2022-09-17T23:43:55.116Z,14.20
2022-09-17T23:46:23.782Z,14.20
2022-09-17T23:48:53.339Z,14.20
2022-09-17T23:51:24.450Z,14.20
2022-09-17T23:53:51.767Z,14.20
2022-09-17T23:56:21.330Z,14.20
2022-09-17T23:58:48.959Z,14.10
